Time;durP1;ratioP1;P1;durP2;ratioP2;P2;SDS_P1;SDS_P2;PMS_P1;PMS_P2;Temp;Humidity;BMP_temperature;BMP_pressure;BME280_temperature;BME280_humidity;BME280_pressure;Samples;Min_cycle;Max_cycle;Signal;HPM_P1;HPM_P2
2023/09/18 00:02:06;;;;;;;4.83;4.13;;;;;;;;;;5069728;28;20413;-50
2023/09/18 00:04:33;;;;;;;6.07;4.10;;;;;;;;;;5070232;28;20201;-49
2023/09/18 00:07:01;;;;;;;4.13;3.83;;;;;;;;;;5069872;28;20183;-52
2023/09/18 00:09:27;;;;;;;5.10;4.00;;;;;;;;;;5071105;28;20169;-53
2023/09/18 00:11:53;;;;;;;4.53;4.13;;;;;;;;;;5071777;28;20165;-48
2023/09/18 00:14:19;;;;;;;4.40;4.00;;;;;;;;;;5071477;28;20202;-52
2023/09/18 00:16:45;;;;;;;4.23;3.83;;;;;;;;;;5071411;28;20207;-50
2023/09/18 00:19:11;;;;;;;6.47;4.03;;;;;;;;;;5070727;28;20200;-49
2023/09/18 00:21:37;;;;;;;4.87;4.43;;;;;;;;;;5070224;28;20173;-50
2023/09/18 00:24:04;;;;;;;4.07;3.77;;;;;;;;;;5069545;28;20470;-49
2023/09/18 00:26:30;;;;;;;4.40;4.00;;;;;;;;;;5070400;28;20182;-50
2023/09/18 00:28:56;;;;;;;3.93;3.63;;;;;;;;;;5070750;28;20252;-50
2023/09/18 00:31:23;;;;;;;4.93;4.07;;;;;;;;;;5069739;28;20176;-48
2023/09/18 00:33:49;;;;;;;4.20;3.90;;;;;;;;;;5070673;28;20181;-51
2023/09/18 00:36:16;;;;;;;6.47;3.90;;;;;;;;;;5071212;28;20192;-48
2023/09/18 00:38:42;;;;;;;4.40;3.87;;;;;;;;;;5072035;28;20268;-51
2023/09/18 00:41:08;;;;;;;4.83;3.67;;;;;;;;;;5071272;28;20279;-51
2023/09/18 00:43:35;;;;;;;4.30;3.90;;;;;;;;;;5071666;28;20506;-51
2023/09/18 00:46:02;;;;;;;4.10;3.70;;;;;;;;;;5072652;28;20540;-51
2023/09/18 00:48:28;;;;;;;4.53;4.00;;;;;;;;;;5070825;28;20215;-50
2023/09/18 00:50:55;;;;;;;3.90;3.50;;;;;;;;;;5072088;28;20265;-50
2023/09/18 00:53:23;;;;;;;4.63;4.17;;;;;;;;;;5072037;28;20263;-53
2023/09/18 00:55:51;;;;;;;4.43;3.90;;;;;;;;;;5070095;28;20263;-50
2023/09/18 00:58:17;;;;;;;4.73;4.33;;;;;;;;;;5070574;28;20626;-50
2023/09/18 01:00:45;;;;;;;4.40;4.00;;;;;;;;;;5068974;28;20290;-51
2023/09/18 01:03:13;;;;;;;4.20;3.80;;;;;;;;;;5067602;28;20304;-52
2023/09/18 01:05:39;;;;;;;7.07;4.00;;;;;;;;;;5069315;28;20164;-52
2023/09/18 01:08:05;;;;;;;4.97;3.63;;;;;;;;;;5068622;28;20478;-53
2023/09/18 01:10:34;;;;;;;4.47;4.07;;;;;;;;;;5068789;28;20173;-54
2023/09/18 01:13:05;;;;;;;3.77;3.43;;;;;;;;;;5068462;28;20172;-51
2023/09/18 01:15:35;;;;;;;4.17;3.77;;;;;;;;;;5068073;28;20618;-51
2023/09/18 01:18:03;;;;;;;4.20;3.80;;;;;;;;;;5068473;28;20319;-50
2023/09/18 01:20:29;;;;;;;3.93;3.57;;;;;;;;;;5069373;28;20165;-49
2023/09/18 01:22:55;;;;;;;4.70;3.97;;;;;;;;;;5069611;28;20176;-52
2023/09/18 01:25:21;;;;;;;4.63;4.20;;;;;;;;;;5068184;28;20196;-50
2023/09/18 01:27:47;;;;;;;4.33;3.93;;;;;;;;;;5068570;28;20165;-50
2023/09/18 01:30:13;;;;;;;4.03;3.73;;;;;;;;;;5069806;28;20215;-51
2023/09/18 01:32:39;;;;;;;4.87;3.77;;;;;;;;;;5069606;28;20242;-51
2023/09/18 01:35:07;;;;;;;4.23;3.83;;;;;;;;;;5068329;28;20632;-50
2023/09/18 01:37:33;;;;;;;4.33;3.83;;;;;;;;;;5067221;28;20482;-49
2023/09/18 01:39:59;;;;;;;4.77;4.13;;;;;;;;;;5068880;28;20178;-49
2023/09/18 01:42:27;;;;;;;4.37;3.97;;;;;;;;;;5069345;28;20246;-49
2023/09/18 01:44:54;;;;;;;6.17;4.00;;;;;;;;;;5068954;28;20216;-49
2023/09/18 01:47:23;;;;;;;3.90;3.60;;;;;;;;;;5069091;28;20370;-49
2023/09/18 01:49:49;;;;;;;6.13;4.00;;;;;;;;;;5069316;28;20344;-50
2023/09/18 01:52:16;;;;;;;4.40;4.00;;;;;;;;;;5070955;28;20169;-49
2023/09/18 01:54:42;;;;;;;5.47;4.00;;;;;;;;;;5070440;28;20255;-49
2023/09/18 01:57:08;;;;;;;4.33;3.83;;;;;;;;;;5071265;28;20236;-52
2023/09/18 01:59:35;;;;;;;3.87;3.53;;;;;;;;;;5075538;28;20191;-48
2023/09/18 02:02:03;;;;;;;5.17;3.77;;;;;;;;;;5073785;28;20315;-49
2023/09/18 02:04:30;;;;;;;4.50;4.10;;;;;;;;;;5073415;28;20595;-50
2023/09/18 02:06:57;;;;;;;3.83;3.53;;;;;;;;;;5071813;28;20425;-52
2023/09/18 02:09:23;;;;;;;5.93;3.90;;;;;;;;;;5072205;28;20329;-53
2023/09/18 02:11:49;;;;;;;4.27;3.87;;;;;;;;;;5072447;28;20200;-53
2023/09/18 02:14:15;;;;;;;4.27;3.87;;;;;;;;;;5072201;28;20212;-50
2023/09/18 02:16:42;;;;;;;5.73;4.07;;;;;;;;;;5072749;28;20181;-49
2023/09/18 02:19:08;;;;;;;6.33;3.77;;;;;;;;;;5073677;28;20210;-51
2023/09/18 02:21:34;;;;;;;4.17;3.77;;;;;;;;;;5072485;28;20176;-50
2023/09/18 02:24:01;;;;;;;4.70;4.20;;;;;;;;;;5072826;28;20200;-51
2023/09/18 02:26:27;;;;;;;6.10;4.27;;;;;;;;;;5072917;28;20173;-51
2023/09/18 02:28:54;;;;;;;6.87;4.60;;;;;;;;;;5071624;28;20173;-50
2023/09/18 02:31:20;;;;;;;4.20;3.80;;;;;;;;;;5071609;28;20540;-53
2023/09/18 02:33:47;;;;;;;5.30;4.17;;;;;;;;;;5072045;28;20280;-50
2023/09/18 02:36:13;;;;;;;5.23;4.00;;;;;;;;;;5071141;28;20208;-48
2023/09/18 02:38:39;;;;;;;4.80;4.23;;;;;;;;;;5070782;28;20176;-53
2023/09/18 02:41:05;;;;;;;4.50;4.13;;;;;;;;;;5071951;28;20231;-51
2023/09/18 02:43:31;;;;;;;4.30;3.90;;;;;;;;;;5070796;28;20548;-53
2023/09/18 02:45:57;;;;;;;4.53;3.90;;;;;;;;;;5072369;28;20198;-49
2023/09/18 02:48:23;;;;;;;4.70;4.20;;;;;;;;;;5071281;28;20469;-53
2023/09/18 02:50:50;;;;;;;4.20;3.80;;;;;;;;;;5071544;28;20169;-52
2023/09/18 02:53:20;;;;;;;4.07;3.67;;;;;;;;;;5072055;28;20175;-49
2023/09/18 02:55:47;;;;;;;4.73;3.97;;;;;;;;;;5069948;28;20172;-48
2023/09/18 02:58:13;;;;;;;4.17;3.63;;;;;;;;;;5089730;28;20243;-51
2023/09/18 03:00:45;;;;;;;3.90;3.60;;;;;;;;;;5073814;28;20168;-52
2023/09/18 03:03:12;;;;;;;3.70;3.40;;;;;;;;;;5073014;28;20282;-49
2023/09/18 03:05:39;;;;;;;4.43;4.03;;;;;;;;;;5089389;28;20172;-54
2023/09/18 03:08:05;;;;;;;4.30;3.83;;;;;;;;;;5072051;28;20270;-49
2023/09/18 03:10:35;;;;;;;4.53;4.13;;;;;;;;;;5089796;28;20571;-50
2023/09/18 03:13:02;;;;;;;5.23;4.37;;;;;;;;;;5074090;28;20325;-48
2023/09/18 03:15:28;;;;;;;4.63;4.23;;;;;;;;;;5091533;28;20187;-51
2023/09/18 03:17:54;;;;;;;7.50;4.43;;;;;;;;;;5092551;28;20240;-48
2023/09/18 03:20:23;;;;;;;5.00;4.13;;;;;;;;;;5075183;28;20172;-51
2023/09/18 03:22:49;;;;;;;4.50;4.10;;;;;;;;;;5075244;28;20263;-49
2023/09/18 03:25:15;;;;;;;5.17;4.23;;;;;;;;;;5074328;28;20591;-50
2023/09/18 03:27:41;;;;;;;4.77;4.30;;;;;;;;;;5074276;28;20476;-48
2023/09/18 03:30:08;;;;;;;5.63;3.87;;;;;;;;;;5091647;28;20183;-51
2023/09/18 03:32:34;;;;;;;6.90;4.53;;;;;;;;;;5074034;28;20172;-53
2023/09/18 03:35:01;;;;;;;6.17;4.50;;;;;;;;;;5092138;28;20477;-56
2023/09/18 03:37:27;;;;;;;4.47;4.07;;;;;;;;;;5090831;28;20236;-48
2023/09/18 03:39:53;;;;;;;5.17;4.10;;;;;;;;;;5072669;28;20492;-50
2023/09/18 03:42:19;;;;;;;4.50;4.10;;;;;;;;;;5073770;28;20164;-48
2023/09/18 03:44:45;;;;;;;4.40;4.00;;;;;;;;;;5073991;28;20226;-48
2023/09/18 03:47:11;;;;;;;4.83;4.33;;;;;;;;;;5091211;28;20179;-52
2023/09/18 03:49:37;;;;;;;4.70;4.20;;;;;;;;;;5074791;28;20172;-50
2023/09/18 03:52:09;;;;;;;5.40;4.23;;;;;;;;;;5079279;28;20224;-52
2023/09/18 03:54:35;;;;;;;4.17;3.77;;;;;;;;;;5073836;28;20172;-50
2023/09/18 03:57:01;;;;;;;5.23;4.73;;;;;;;;;;5073537;28;20384;-51
2023/09/18 03:59:27;;;;;;;5.07;4.53;;;;;;;;;;5091099;28;20319;-50
2023/09/18 04:01:53;;;;;;;5.13;4.67;;;;;;;;;;5072037;28;20591;-49
2023/09/18 04:04:19;;;;;;;4.73;4.33;;;;;;;;;;5089654;28;20196;-53
2023/09/18 04:06:46;;;;;;;4.47;4.07;;;;;;;;;;5071568;28;20369;-49
2023/09/18 04:09:12;;;;;;;6.30;4.40;;;;;;;;;;5087650;28;20164;-50
2023/09/18 04:11:38;;;;;;;4.70;4.30;;;;;;;;;;5089141;28;20556;-51
2023/09/18 04:14:04;;;;;;;4.47;4.07;;;;;;;;;;5071787;28;20176;-52
2023/09/18 04:16:30;;;;;;;4.60;4.20;;;;;;;;;;5090364;28;20176;-48
2023/09/18 04:18:57;;;;;;;5.17;4.70;;;;;;;;;;5090459;28;20160;-52
2023/09/18 04:21:23;;;;;;;4.73;4.20;;;;;;;;;;5071630;28;20164;-50
2023/09/18 04:23:55;;;;;;;4.57;4.10;;;;;;;;;;5072758;28;20367;-53
2023/09/18 04:26:22;;;;;;;4.70;4.30;;;;;;;;;;5090401;28;20161;-48
2023/09/18 04:28:48;;;;;;;5.33;4.83;;;;;;;;;;5072973;28;20467;-51
2023/09/18 04:31:16;;;;;;;4.20;3.80;;;;;;;;;;5071659;28;20267;-50
2023/09/18 04:33:42;;;;;;;5.37;4.37;;;;;;;;;;5091113;28;20199;-52
2023/09/18 04:36:08;;;;;;;5.30;4.80;;;;;;;;;;5071195;28;20179;-51
2023/09/18 04:38:34;;;;;;;4.97;4.57;;;;;;;;;;5072013;28;20289;-51
2023/09/18 04:41:01;;;;;;;5.27;4.60;;;;;;;;;;5072044;28;20267;-52
2023/09/18 04:43:30;;;;;;;4.80;4.40;;;;;;;;;;5071850;28;20326;-49
2023/09/18 04:45:57;;;;;;;4.70;4.30;;;;;;;;;;5070264;28;20180;-50
2023/09/18 04:48:23;;;;;;;5.30;4.80;;;;;;;;;;5089220;28;20164;-50
2023/09/18 04:50:49;;;;;;;4.90;4.40;;;;;;;;;;5088544;28;20164;-49
2023/09/18 04:53:15;;;;;;;5.10;4.70;;;;;;;;;;5070764;28;20176;-50
2023/09/18 04:55:41;;;;;;;6.23;5.10;;;;;;;;;;5088084;28;20160;-51
2023/09/18 04:58:07;;;;;;;5.20;4.70;;;;;;;;;;5069387;28;20306;-49
2023/09/18 05:00:33;;;;;;;7.97;4.47;;;;;;;;;;5070709;28;20273;-49
2023/09/18 05:03:01;;;;;;;6.60;5.07;;;;;;;;;;5090222;28;20435;-49
2023/09/18 05:05:29;;;;;;;5.93;4.97;;;;;;;;;;5072333;28;20207;-54
2023/09/18 05:07:55;;;;;;;5.47;4.93;;;;;;;;;;5071320;28;20168;-50
2023/09/18 05:10:21;;;;;;;5.53;4.97;;;;;;;;;;5071106;28;20168;-54
2023/09/18 05:12:50;;;;;;;5.20;4.70;;;;;;;;;;5070860;28;20195;-48
2023/09/18 05:15:16;;;;;;;4.50;4.10;;;;;;;;;;5070917;28;20172;-51
2023/09/18 05:17:43;;;;;;;5.37;4.87;;;;;;;;;;5089142;28;20180;-51
2023/09/18 05:20:15;;;;;;;5.50;5.00;;;;;;;;;;5072139;28;20245;-49
2023/09/18 05:22:45;;;;;;;5.33;4.80;;;;;;;;;;5072517;28;20480;-53
2023/09/18 05:25:12;;;;;;;4.27;3.87;;;;;;;;;;5070251;28;20439;-52
2023/09/18 05:27:43;;;;;;;5.30;4.53;;;;;;;;;;5067062;28;20168;-50
2023/09/18 05:30:11;;;;;;;5.50;4.83;;;;;;;;;;5067167;28;20693;-49
2023/09/18 05:32:38;;;;;;;5.30;4.80;;;;;;;;;;5084759;28;20172;-53
2023/09/18 05:35:06;;;;;;;7.93;4.53;;;;;;;;;;5082718;28;20233;-51
2023/09/18 05:37:32;;;;;;;6.13;4.50;;;;;;;;;;5064984;28;20240;-49
2023/09/18 05:39:58;;;;;;;5.23;4.70;;;;;;;;;;5065979;28;20194;-48
2023/09/18 05:42:25;;;;;;;5.60;4.80;;;;;;;;;;5066644;28;20379;-53
2023/09/18 05:44:51;;;;;;;5.57;4.70;;;;;;;;;;5084145;28;20481;-53
2023/09/18 05:47:17;;;;;;;6.07;4.37;;;;;;;;;;5064118;28;20199;-49
2023/09/18 05:49:43;;;;;;;7.83;5.40;;;;;;;;;;5064898;28;20203;-48
2023/09/18 05:52:09;;;;;;;5.80;4.97;;;;;;;;;;5082801;28;20200;-49
2023/09/18 05:54:36;;;;;;;5.60;4.30;;;;;;;;;;5065529;28;20211;-49
2023/09/18 05:57:03;;;;;;;8.13;4.67;;;;;;;;;;5062046;28;20225;-51
2023/09/18 05:59:30;;;;;;;4.93;4.53;;;;;;;;;;5060972;28;20188;-49
2023/09/18 06:01:56;;;;;;;6.17;4.67;;;;;;;;;;5060907;28;20177;-55
2023/09/18 06:04:23;;;;;;;5.13;4.63;;;;;;;;;;5061087;28;20411;-49
2023/09/18 06:06:51;;;;;;;5.93;4.90;;;;;;;;;;5060167;28;20296;-50
2023/09/18 06:09:18;;;;;;;4.97;4.20;;;;;;;;;;5062182;28;20268;-53
2023/09/18 06:11:44;;;;;;;5.10;4.60;;;;;;;;;;5060800;28;20200;-50
2023/09/18 06:14:10;;;;;;;5.23;4.73;;;;;;;;;;5060416;28;20172;-49
2023/09/18 06:16:37;;;;;;;5.07;4.60;;;;;;;;;;5060102;28;20172;-48
2023/09/18 06:19:03;;;;;;;5.37;4.60;;;;;;;;;;5059189;28;20295;-51
2023/09/18 06:21:29;;;;;;;8.17;4.77;;;;;;;;;;5057647;28;20185;-49
2023/09/18 06:23:55;;;;;;;4.83;4.40;;;;;;;;;;5047333;28;20209;-50
2023/09/18 06:26:21;;;;;;;6.67;4.87;;;;;;;;;;5044383;28;20201;-53
2023/09/18 06:28:47;;;;;;;5.20;4.70;;;;;;;;;;5043306;28;20525;-52
2023/09/18 06:31:14;;;;;;;5.47;4.40;;;;;;;;;;5037515;28;20500;-48
2023/09/18 06:33:40;;;;;;;8.03;4.93;;;;;;;;;;5038956;28;20307;-52
2023/09/18 06:36:06;;;;;;;5.50;4.83;;;;;;;;;;5037540;28;20278;-50
2023/09/18 06:38:32;;;;;;;5.63;4.90;;;;;;;;;;5039052;28;20429;-50
2023/09/18 06:40:58;;;;;;;7.43;5.50;;;;;;;;;;5038763;28;20173;-50
2023/09/18 06:43:24;;;;;;;4.83;4.43;;;;;;;;;;5038829;28;20204;-50
2023/09/18 06:45:51;;;;;;;5.67;4.77;;;;;;;;;;5040922;28;20234;-51
2023/09/18 06:48:17;;;;;;;5.00;4.40;;;;;;;;;;5041790;28;20185;-49
2023/09/18 06:50:43;;;;;;;4.97;4.57;;;;;;;;;;5042675;28;20165;-50
2023/09/18 06:53:10;;;;;;;7.17;5.17;;;;;;;;;;5044432;28;20449;-52
2023/09/18 06:55:37;;;;;;;4.97;4.50;;;;;;;;;;5044738;28;20538;-50
2023/09/18 06:58:04;;;;;;;5.97;4.83;;;;;;;;;;5049672;28;20437;-51
2023/09/18 07:00:30;;;;;;;6.57;5.03;;;;;;;;;;5049538;28;20572;-49
2023/09/18 07:02:57;;;;;;;4.50;4.10;;;;;;;;;;5049665;28;20176;-53
2023/09/18 07:05:23;;;;;;;6.90;4.37;;;;;;;;;;5047887;28;20204;-50
2023/09/18 07:07:49;;;;;;;6.03;4.63;;;;;;;;;;5065578;28;20510;-50
2023/09/18 07:10:16;;;;;;;5.43;4.37;;;;;;;;;;5063777;28;20362;-50
2023/09/18 07:12:42;;;;;;;4.80;4.30;;;;;;;;;;5045525;28;20339;-51
2023/09/18 07:15:09;;;;;;;5.23;4.70;;;;;;;;;;5043498;28;20457;-50
2023/09/18 07:17:35;;;;;;;5.60;4.50;;;;;;;;;;5045907;28;20176;-51
2023/09/18 07:20:07;;;;;;;4.70;4.30;;;;;;;;;;5047470;28;20230;-54
2023/09/18 07:22:33;;;;;;;4.83;4.27;;;;;;;;;;5064415;28;20189;-51
2023/09/18 07:25:00;;;;;;;4.13;3.83;;;;;;;;;;5064237;28;20239;-53
2023/09/18 07:27:27;;;;;;;4.50;4.10;;;;;;;;;;5047630;28;20176;-50
2023/09/18 07:29:57;;;;;;;4.33;3.93;;;;;;;;;;5047778;28;20181;-51
2023/09/18 07:32:24;;;;;;;4.67;4.00;;;;;;;;;;5066121;28;20184;-53
2023/09/18 07:34:50;;;;;;;4.40;4.03;;;;;;;;;;5050039;28;20176;-49
2023/09/18 07:37:20;;;;;;;4.97;4.40;;;;;;;;;;5050763;28;20172;-49
2023/09/18 07:39:46;;;;;;;8.17;4.07;;;;;;;;;;5050549;28;20491;-50
2023/09/18 07:42:12;;;;;;;4.77;4.30;;;;;;;;;;5049203;28;20346;-52
2023/09/18 07:44:39;;;;;;;6.20;4.83;;;;;;;;;;5046366;28;20200;-49
2023/09/18 07:47:05;;;;;;;5.60;4.13;;;;;;;;;;5046742;28;20181;-51
2023/09/18 07:49:31;;;;;;;4.60;4.20;;;;;;;;;;5045081;28;20390;-51
2023/09/18 07:51:57;;;;;;;5.17;4.67;;;;;;;;;;5045295;28;20176;-54
2023/09/18 07:54:23;;;;;;;5.07;4.20;;;;;;;;;;5064031;28;20389;-47
2023/09/18 07:56:49;;;;;;;4.70;4.30;;;;;;;;;;5057112;28;20440;-51
2023/09/18 07:59:16;;;;;;;4.57;4.17;;;;;;;;;;5042456;28;20436;-47
2023/09/18 08:01:43;;;;;;;5.63;4.30;;;;;;;;;;5042197;28;20371;-50
2023/09/18 08:04:09;;;;;;;7.33;3.90;;;;;;;;;;5042751;28;20213;-49
2023/09/18 08:06:37;;;;;;;5.90;4.50;;;;;;;;;;5043666;28;20661;-51
2023/09/18 08:09:04;;;;;;;4.27;3.87;;;;;;;;;;5042492;28;20644;-48
2023/09/18 08:11:32;;;;;;;4.50;4.10;;;;;;;;;;5040185;28;20402;-47
2023/09/18 08:13:58;;;;;;;3.90;3.40;;;;;;;;;;5041695;28;20266;-52
2023/09/18 08:16:24;;;;;;;6.83;4.40;;;;;;;;;;5043119;28;20181;-52
2023/09/18 08:18:52;;;;;;;4.53;4.10;;;;;;;;;;5041358;28;20185;-48
2023/09/18 08:21:18;;;;;;;4.63;4.23;;;;;;;;;;5041679;28;20532;-48
2023/09/18 08:23:45;;;;;;;4.87;4.40;;;;;;;;;;5039388;28;20716;-47
2023/09/18 08:26:11;;;;;;;4.93;4.43;;;;;;;;;;5041151;28;20169;-49
2023/09/18 08:28:43;;;;;;;6.23;4.00;;;;;;;;;;5041864;28;20169;-50
2023/09/18 08:31:10;;;;;;;12.83;5.47;;;;;;;;;;5040937;28;20178;-51
2023/09/18 08:33:38;;;;;;;5.03;4.17;;;;;;;;;;5041208;28;20180;-50
2023/09/18 08:36:04;;;;;;;5.10;4.60;;;;;;;;;;5040776;28;20438;-51
2023/09/18 08:38:30;;;;;;;4.43;4.03;;;;;;;;;;5040373;28;20185;-53
2023/09/18 08:40:57;;;;;;;5.00;4.50;;;;;;;;;;5041406;28;20459;-50
2023/09/18 08:43:24;;;;;;;5.47;4.73;;;;;;;;;;5041466;28;20264;-48
2023/09/18 08:45:55;;;;;;;4.37;4.00;;;;;;;;;;5042690;28;20181;-51
2023/09/18 08:48:23;;;;;;;5.20;4.70;;;;;;;;;;5042887;28;20231;-53
2023/09/18 08:50:49;;;;;;;6.27;4.63;;;;;;;;;;5043635;28;20358;-51
2023/09/18 08:53:16;;;;;;;7.73;4.90;;;;;;;;;;5044001;28;20390;-51
2023/09/18 08:55:42;;;;;;;5.50;4.70;;;;;;;;;;5044615;28;20307;-51
2023/09/18 08:58:09;;;;;;;4.83;4.17;;;;;;;;;;5042559;28;20237;-48
2023/09/18 09:00:36;;;;;;;5.33;4.23;;;;;;;;;;5042462;28;20343;-50
2023/09/18 09:03:04;;;;;;;5.20;4.70;;;;;;;;;;5040157;28;20247;-50
2023/09/18 09:05:31;;;;;;;7.60;4.83;;;;;;;;;;5041607;28;20201;-48
2023/09/18 09:07:57;;;;;;;5.10;3.87;;;;;;;;;;5042044;28;20473;-48
2023/09/18 09:10:25;;;;;;;6.63;4.43;;;;;;;;;;5042427;28;20177;-49
2023/09/18 09:12:55;;;;;;;7.00;5.10;;;;;;;;;;5042083;28;20553;-48
2023/09/18 09:15:26;;;;;;;4.10;3.80;;;;;;;;;;5041454;28;20170;-48
2023/09/18 09:17:53;;;;;;;4.73;4.10;;;;;;;;;;5042125;28;20205;-53
2023/09/18 09:20:19;;;;;;;7.33;4.83;;;;;;;;;;5043495;28;20325;-51
2023/09/18 09:22:45;;;;;;;8.60;4.50;;;;;;;;;;5044231;28;20285;-51
2023/09/18 09:25:22;;;;;;;4.70;4.30;;;;;;;;;;5042777;28;20644;-50
2023/09/18 09:27:48;;;;;;;8.00;4.27;;;;;;;;;;5042486;28;20161;-48
2023/09/18 09:30:41;;;;;;;5.80;3.83;;;;;;;;;;5043439;28;20169;-50
2023/09/18 09:33:07;;;;;;;5.20;4.70;;;;;;;;;;5037910;28;20558;-48
2023/09/18 09:35:36;;;;;;;6.80;4.50;;;;;;;;;;5041316;28;20212;-49
2023/09/18 09:38:15;;;;;;;4.67;3.80;;;;;;;;;;5039848;28;20716;-50
2023/09/18 09:40:43;;;;;;;7.17;4.60;;;;;;;;;;5038502;28;20173;-51
2023/09/18 09:43:11;;;;;;;4.57;4.17;;;;;;;;;;5046096;28;20173;-52
2023/09/18 09:45:38;;;;;;;5.90;3.97;;;;;;;;;;5049148;28;20651;-50
2023/09/18 09:48:05;;;;;;;4.80;4.33;;;;;;;;;;5047326;28;20178;-54
2023/09/18 09:50:32;;;;;;;10.30;4.03;;;;;;;;;;5047172;28;20177;-52
2023/09/18 09:52:59;;;;;;;4.23;3.83;;;;;;;;;;5048381;28;20173;-51
2023/09/18 09:55:30;;;;;;;9.07;4.63;;;;;;;;;;5049455;28;20197;-50
2023/09/18 09:57:59;;;;;;;4.13;3.73;;;;;;;;;;5047987;28;20234;-51
2023/09/18 10:00:27;;;;;;;5.57;4.47;;;;;;;;;;5045691;28;20196;-49
2023/09/18 10:02:57;;;;;;;4.87;4.40;;;;;;;;;;5045506;28;20784;-52
2023/09/18 10:05:25;;;;;;;6.33;4.50;;;;;;;;;;5043909;28;20215;-50
2023/09/18 10:07:52;;;;;;;4.17;3.67;;;;;;;;;;5045374;28;20170;-50
2023/09/18 10:10:18;;;;;;;6.70;4.13;;;;;;;;;;5046797;28;20176;-51
2023/09/18 10:12:46;;;;;;;6.47;4.13;;;;;;;;;;5046216;28;20161;-49
2023/09/18 10:15:14;;;;;;;4.80;3.60;;;;;;;;;;5046429;28;20189;-54
2023/09/18 10:17:45;;;;;;;10.30;4.00;;;;;;;;;;5046274;28;20176;-52
2023/09/18 10:20:19;;;;;;;4.10;3.80;;;;;;;;;;5049130;28;20529;-50
2023/09/18 10:22:46;;;;;;;5.03;3.73;;;;;;;;;;5050303;28;20177;-55
2023/09/18 10:25:18;;;;;;;9.37;4.20;;;;;;;;;;5049673;28;20596;-48
2023/09/18 10:27:58;;;;;;;7.30;3.70;;;;;;;;;;5049764;28;20566;-51
2023/09/18 10:30:25;;;;;;;5.77;3.50;;;;;;;;;;5049441;28;20173;-51
2023/09/18 10:32:51;;;;;;;5.97;3.87;;;;;;;;;;5047681;28;20169;-52
2023/09/18 10:35:19;;;;;;;5.63;4.17;;;;;;;;;;5046644;28;20173;-52
2023/09/18 10:37:46;;;;;;;4.33;3.73;;;;;;;;;;5038788;28;20170;-50
2023/09/18 10:40:13;;;;;;;4.10;3.50;;;;;;;;;;5040667;28;20300;-51
2023/09/18 10:42:40;;;;;;;5.10;3.93;;;;;;;;;;5041050;28;20189;-49
2023/09/18 10:45:10;;;;;;;6.60;4.80;;;;;;;;;;5040085;28;20205;-52
2023/09/18 10:47:39;;;;;;;8.00;4.10;;;;;;;;;;5039552;28;20181;-55
2023/09/18 10:50:07;;;;;;;4.77;3.70;;;;;;;;;;5041121;28;20488;-55
2023/09/18 10:52:33;;;;;;;11.63;4.00;;;;;;;;;;5042914;28;20165;-53
2023/09/18 10:55:02;;;;;;;4.73;3.53;;;;;;;;;;5042732;28;20270;-48
2023/09/18 10:57:28;;;;;;;5.63;4.10;;;;;;;;;;5043799;28;20271;-50
2023/09/18 10:59:55;;;;;;;6.27;3.87;;;;;;;;;;5043182;28;20205;-49
2023/09/18 11:02:22;;;;;;;6.73;4.60;;;;;;;;;;5044230;28;20697;-53
2023/09/18 11:04:49;;;;;;;8.13;4.10;;;;;;;;;;5043219;28;20201;-50
2023/09/18 11:07:24;;;;;;;8.20;4.20;;;;;;;;;;5042554;28;20165;-51
2023/09/18 11:09:50;;;;;;;4.97;3.57;;;;;;;;;;5043591;28;20179;-54
2023/09/18 11:12:19;;;;;;;7.90;3.40;;;;;;;;;;5042683;28;20409;-48
2023/09/18 11:14:46;;;;;;;5.00;3.30;;;;;;;;;;5040733;28;20247;-50
2023/09/18 11:17:31;;;;;;;7.50;3.63;;;;;;;;;;5041969;28;20440;-48
2023/09/18 11:20:09;;;;;;;7.07;3.83;;;;;;;;;;5043492;28;20169;-48
2023/09/18 11:22:36;;;;;;;6.40;3.97;;;;;;;;;;5042511;28;20181;-50
2023/09/18 11:25:21;;;;;;;5.63;3.20;;;;;;;;;;5041527;28;20211;-48
2023/09/18 11:27:55;;;;;;;11.93;3.50;;;;;;;;;;5043961;28;20161;-49
2023/09/18 11:30:21;;;;;;;5.93;3.83;;;;;;;;;;5043813;28;20304;-48
2023/09/18 11:32:48;;;;;;;5.43;3.57;;;;;;;;;;5043576;28;20200;-50
2023/09/18 11:35:17;;;;;;;6.43;3.53;;;;;;;;;;5044941;28;20275;-51
2023/09/18 11:37:43;;;;;;;7.03;3.60;;;;;;;;;;5043544;28;20593;-50
2023/09/18 11:40:33;;;;;;;7.17;3.40;;;;;;;;;;5043413;28;20467;-50
2023/09/18 11:43:35;;;;;;;7.33;3.33;;;;;;;;;;5045591;28;20452;-49
2023/09/18 11:46:03;;;;;;;6.33;3.70;;;;;;;;;;5000376;28;20234;-50
2023/09/18 11:48:29;;;;;;;5.87;3.07;;;;;;;;;;5042163;28;20637;-51
2023/09/18 11:50:59;;;;;;;6.47;3.17;;;;;;;;;;5043535;28;20165;-50
2023/09/18 11:53:27;;;;;;;9.93;2.97;;;;;;;;;;5041471;28;20507;-50
2023/09/18 11:55:53;;;;;;;4.93;3.07;;;;;;;;;;5042835;28;20478;-53
2023/09/18 11:58:23;;;;;;;4.93;3.00;;;;;;;;;;5040639;28;20589;-52
2023/09/18 12:00:50;;;;;;;13.30;3.50;;;;;;;;;;5042971;28;20182;-50
2023/09/18 12:03:26;;;;;;;6.37;2.87;;;;;;;;;;5043377;28;20174;-51
2023/09/18 12:06:05;;;;;;;23.00;4.63;;;;;;;;;;5042155;28;20276;-51
2023/09/18 12:08:32;;;;;;;5.70;2.73;;;;;;;;;;5042306;28;20197;-54
2023/09/18 12:10:59;;;;;;;7.27;3.13;;;;;;;;;;5043130;28;20173;-51
2023/09/18 12:13:26;;;;;;;7.43;3.00;;;;;;;;;;5042138;28;20169;-51
2023/09/18 12:16:00;;;;;;;5.33;2.77;;;;;;;;;;5040042;28;20293;-50
2023/09/18 12:18:28;;;;;;;7.27;2.97;;;;;;;;;;5040239;28;20181;-48
2023/09/18 12:20:59;;;;;;;10.40;3.10;;;;;;;;;;5040006;28;20169;-51
2023/09/18 12:23:25;;;;;;;4.93;2.67;;;;;;;;;;5044869;28;20756;-52
2023/09/18 12:25:57;;;;;;;5.83;2.70;;;;;;;;;;5046832;28;20178;-51
2023/09/18 12:28:28;;;;;;;9.27;3.63;;;;;;;;;;5046586;28;20186;-52
2023/09/18 12:30:56;;;;;;;11.50;3.03;;;;;;;;;;5048511;28;20201;-51
2023/09/18 12:33:23;;;;;;;7.13;2.80;;;;;;;;;;5046361;28;20239;-50
2023/09/18 12:35:51;;;;;;;11.87;2.83;;;;;;;;;;5046405;28;20173;-50
2023/09/18 12:38:22;;;;;;;3.87;2.70;;;;;;;;;;5046945;28;20166;-53
2023/09/18 12:40:49;;;;;;;4.90;2.20;;;;;;;;;;5047171;28;20208;-49
2023/09/18 12:43:15;;;;;;;3.33;2.23;;;;;;;;;;5048168;28;20296;-51
2023/09/18 12:45:41;;;;;;;7.63;3.03;;;;;;;;;;5047799;28;20197;-53
2023/09/18 12:48:08;;;;;;;9.47;2.73;;;;;;;;;;5045954;28;20177;-52
2023/09/18 12:50:37;;;;;;;5.97;2.20;;;;;;;;;;5046160;28;20276;-51
2023/09/18 12:53:07;;;;;;;7.30;2.77;;;;;;;;;;5047578;28;20197;-50
2023/09/18 12:55:33;;;;;;;7.87;2.67;;;;;;;;;;5047191;28;20177;-50
2023/09/18 12:58:01;;;;;;;6.17;2.10;;;;;;;;;;5046202;28;20233;-49
2023/09/18 13:00:27;;;;;;;6.20;2.50;;;;;;;;;;5047575;28;20193;-52
2023/09/18 13:02:57;;;;;;;6.07;2.37;;;;;;;;;;5048230;28;20208;-51
2023/09/18 13:05:26;;;;;;;6.03;2.53;;;;;;;;;;5048618;28;20219;-51
2023/09/18 13:07:54;;;;;;;4.63;2.40;;;;;;;;;;5050966;28;20601;-52
2023/09/18 13:10:21;;;;;;;4.63;2.30;;;;;;;;;;5049961;28;20534;-52
2023/09/18 13:12:50;;;;;;;4.90;2.80;;;;;;;;;;5049293;28;20169;-51
2023/09/18 13:15:27;;;;;;;4.70;2.67;;;;;;;;;;5049060;28;20750;-52
2023/09/18 13:17:53;;;;;;;6.43;2.53;;;;;;;;;;5047108;28;20173;-53
2023/09/18 13:20:24;;;;;;;6.93;2.00;;;;;;;;;;5046551;28;20268;-50
2023/09/18 13:22:51;;;;;;;4.13;2.17;;;;;;;;;;5047930;28;20748;-49
2023/09/18 13:25:24;;;;;;;4.50;2.00;;;;;;;;;;5046355;28;20213;-48
2023/09/18 13:27:51;;;;;;;3.37;2.30;;;;;;;;;;5047444;28;20657;-50
2023/09/18 13:30:17;;;;;;;9.63;2.73;;;;;;;;;;5047073;28;20169;-49
2023/09/18 13:32:44;;;;;;;5.83;2.50;;;;;;;;;;5046758;28;20707;-49
2023/09/18 13:35:13;;;;;;;5.40;2.20;;;;;;;;;;5047789;28;20169;-50
2023/09/18 13:37:39;;;;;;;3.97;2.23;;;;;;;;;;5046964;28;20224;-47
2023/09/18 13:40:09;;;;;;;6.37;2.40;;;;;;;;;;5045845;28;20178;-52
2023/09/18 13:42:35;;;;;;;4.90;2.10;;;;;;;;;;5046347;28;20169;-52
2023/09/18 13:45:01;;;;;;;5.67;2.23;;;;;;;;;;5047200;28;20548;-50
2023/09/18 13:47:28;;;;;;;3.87;2.10;;;;;;;;;;5046428;28;20258;-51
2023/09/18 13:49:56;;;;;;;6.70;2.00;;;;;;;;;;5045861;28;20656;-52
2023/09/18 13:52:23;;;;;;;7.57;2.43;;;;;;;;;;5046041;28;20260;-52
2023/09/18 13:54:51;;;;;;;4.20;2.10;;;;;;;;;;5048217;28;20537;-50
2023/09/18 13:57:18;;;;;;;4.73;2.00;;;;;;;;;;5050744;28;20225;-54
2023/09/18 13:59:44;;;;;;;8.07;2.30;;;;;;;;;;5050886;28;20177;-52
2023/09/18 14:02:10;;;;;;;7.00;2.20;;;;;;;;;;5051690;28;20185;-53
2023/09/18 14:04:37;;;;;;;8.60;2.33;;;;;;;;;;5051455;28;20207;-52
2023/09/18 14:07:03;;;;;;;5.27;2.20;;;;;;;;;;5051268;28;20169;-53
2023/09/18 14:09:30;;;;;;;3.20;2.13;;;;;;;;;;5050927;28;20173;-51
2023/09/18 14:11:56;;;;;;;8.07;2.23;;;;;;;;;;5051779;28;20180;-50
2023/09/18 14:14:25;;;;;;;5.47;2.13;;;;;;;;;;5051869;28;20225;-48
2023/09/18 14:16:53;;;;;;;5.97;2.10;;;;;;;;;;5050223;28;20189;-51
2023/09/18 14:19:19;;;;;;;9.40;2.57;;;;;;;;;;5050323;28;20175;-51
2023/09/18 14:21:54;;;;;;;4.43;2.43;;;;;;;;;;5048089;28;20173;-51
2023/09/18 14:24:22;;;;;;;7.53;2.20;;;;;;;;;;5032008;28;20223;-49
2023/09/18 14:26:49;;;;;;;5.77;2.43;;;;;;;;;;5049787;28;20170;-50
2023/09/18 14:29:15;;;;;;;4.30;1.93;;;;;;;;;;5047218;28;20454;-49
2023/09/18 14:31:42;;;;;;;8.10;2.90;;;;;;;;;;5048103;28;20207;-52
2023/09/18 14:34:08;;;;;;;6.27;2.13;;;;;;;;;;5045562;28;20173;-54
2023/09/18 14:36:35;;;;;;;6.30;2.40;;;;;;;;;;5046743;28;20235;-51
2023/09/18 14:39:05;;;;;;;6.17;2.37;;;;;;;;;;5047139;28;20169;-51
2023/09/18 14:41:31;;;;;;;7.07;2.20;;;;;;;;;;5048320;28;20182;-48
2023/09/18 14:43:58;;;;;;;6.37;2.07;;;;;;;;;;5048316;28;20204;-48
2023/09/18 14:46:25;;;;;;;6.83;2.10;;;;;;;;;;5049463;28;20269;-53